Terminal Aerodrome Forecast
Issued by NWS Mobile, AL

Home | Current Version | Previous Version | Text Only | Print | Product List | Glossary On
Versions: 1 2 3 4 5 6 7 8 9 10 11 12 13 14 15 16 17 18 19 20 21 22 23 24 25 26 27 28
987
FTUS44 KMOB 142032 AAA
TAFMOB
TAF AMD
KMOB 142032Z 1421/1518 14015G21KT P6SM FEW030 SCT110 BKN250
     FM150100 14009KT P6SM OVC050
     FM150900 10007KT P6SM OVC015
      TEMPO 1514/1518 P6SM -SHRA BKN010=

USA.gov is the U.S. government's official web portal to all federal, state and local government web resources and services.